Time;durP1;ratioP1;P1;durP2;ratioP2;P2;SDS_P1;SDS_P2;PMS_P1;PMS_P2;Temp;Humidity;BMP_temperature;BMP_pressure;BME280_temperature;BME280_humidity;BME280_pressure;Samples;Min_cycle;Max_cycle;Signal;HPM_P1;HPM_P2
2022/10/26 00:01:11;;;;;;;0.70;0.70;;;;;;;-1.43;83.99;99673.94;4763930;30;20058;-85
2022/10/26 00:03:40;;;;;;;0.60;0.60;;;;;;;-1.50;84.11;99670.22;4770661;30;20085;-82
2022/10/26 00:06:09;;;;;;;0.75;0.75;;;;;;;-1.49;84.44;99669.25;4764069;30;20649;-81
2022/10/26 00:08:37;;;;;;;0.80;0.80;;;;;;;-1.46;84.22;99674.25;4776947;30;20058;-82
2022/10/26 00:11:04;;;;;;;0.82;0.82;;;;;;;-1.45;84.44;99669.78;4778930;30;20142;-82
2022/10/26 00:13:32;;;;;;;0.80;0.80;;;;;;;-1.47;84.38;99674.38;4764323;30;20079;-82
2022/10/26 00:15:59;;;;;;;0.80;0.80;;;;;;;-1.48;84.33;99665.59;4763129;30;20536;-82
2022/10/26 00:18:31;;;;;;;0.80;0.80;;;;;;;-1.51;84.46;99667.75;4778241;30;20525;-82
2022/10/26 00:21:03;;;;;;;0.70;0.70;;;;;;;-1.51;84.22;99670.38;4779571;29;20134;-83
2022/10/26 00:23:30;;;;;;;0.77;0.77;;;;;;;-1.50;84.50;99672.88;4778069;30;20083;-81
2022/10/26 00:26:01;;;;;;;0.73;0.73;;;;;;;-1.54;84.68;99674.16;4773303;30;20056;-83
2022/10/26 00:28:28;;;;;;;0.70;0.70;;;;;;;-1.58;84.71;99657.72;4770909;30;20163;-82
2022/10/26 00:31:07;;;;;;;0.70;0.70;;;;;;;-1.53;84.87;99659.94;4754984;30;20060;-82
2022/10/26 00:33:34;;;;;;;0.80;0.80;;;;;;;-1.55;84.86;99667.19;4770308;30;20086;-82
2022/10/26 00:36:01;;;;;;;0.68;0.68;;;;;;;-1.52;84.91;99666.88;4768518;30;20063;-83
2022/10/26 00:38:28;;;;;;;0.88;0.88;;;;;;;-1.50;85.02;99659.63;4769941;30;20052;-82
2022/10/26 00:40:55;;;;;;;0.80;0.80;;;;;;;-1.50;84.82;99658.81;4770847;30;20364;-82
2022/10/26 00:43:26;;;;;;;0.90;0.90;;;;;;;-1.40;84.75;99652.44;4770403;30;20052;-82
2022/10/26 00:45:54;;;;;;;0.80;0.80;;;;;;;-1.33;84.47;99661.44;4754484;30;20058;-82
2022/10/26 00:48:29;;;;;;;0.90;0.90;;;;;;;-1.26;84.42;99656.38;4754391;30;20047;-82
2022/10/26 00:50:58;;;;;;;0.90;0.90;;;;;;;-1.19;84.11;99657.44;4771185;30;20558;-82
2022/10/26 00:53:26;;;;;;;0.80;0.80;;;;;;;-1.14;84.13;99662.25;4772717;30;20055;-82
2022/10/26 00:55:53;;;;;;;0.65;0.65;;;;;;;-1.07;83.78;99665.97;4756000;30;20062;-81
2022/10/26 00:58:22;;;;;;;0.80;0.80;;;;;;;-1.04;83.53;99655.06;4770274;30;20059;-83
2022/10/26 01:00:49;;;;;;;0.80;0.80;;;;;;;-0.95;83.26;99654.13;4770037;30;20518;-83
2022/10/26 01:03:17;;;;;;;0.80;0.80;;;;;;;-0.93;83.30;99652.16;4769913;30;20083;-82
2022/10/26 01:05:45;;;;;;;0.70;0.70;;;;;;;-0.91;82.95;99652.03;4783869;30;20146;-82
2022/10/26 01:08:15;;;;;;;0.80;0.80;;;;;;;-0.89;82.79;99650.88;4739696;30;20101;-83
2022/10/26 01:10:42;;;;;;;0.80;0.80;;;;;;;-0.84;82.39;99658.34;4770357;30;20060;-84
2022/10/26 01:13:10;;;;;;;0.77;0.77;;;;;;;-0.83;82.50;99661.84;4769822;30;20079;-82
2022/10/26 01:15:52;;;;;;;0.90;0.90;;;;;;;-0.78;82.39;99664.88;4783620;30;20048;-82
2022/10/26 01:18:46;;;;;;;0.80;0.80;;;;;;;-0.79;82.22;99663.19;4769902;30;20055;-82
2022/10/26 01:21:26;;;;;;;0.73;0.73;;;;;;;-0.77;82.23;99662.03;4783638;30;20375;-82
2022/10/26 01:24:19;;;;;;;0.80;0.80;;;;;;;-0.74;82.14;99660.91;4769673;30;20063;-82
2022/10/26 01:26:57;;;;;;;0.90;0.90;;;;;;;-0.76;82.03;99657.56;4767410;30;20072;-82
2022/10/26 01:30:06;;;;;;;0.88;0.88;;;;;;;-0.71;81.70;99658.78;4769655;30;20059;-81
2022/10/26 01:32:37;;;;;;;0.60;0.60;;;;;;;-0.71;81.44;99660.59;4764720;30;20063;-81
2022/10/26 01:35:29;;;;;;;0.93;0.93;;;;;;;-0.72;81.56;99664.22;4753312;30;20516;-82
2022/10/26 01:38:02;;;;;;;0.90;0.90;;;;;;;-0.76;81.88;99660.22;4740746;30;20055;-81
2022/10/26 01:40:37;;;;;;;0.95;0.95;;;;;;;-0.79;81.68;99657.88;4769510;30;20097;-82
2022/10/26 01:43:07;;;;;;;0.80;0.80;;;;;;;-0.81;81.78;99658.06;4782877;30;20063;-83
2022/10/26 01:45:36;;;;;;;0.80;0.80;;;;;;;-0.91;81.88;99652.03;4769492;30;20056;-83
2022/10/26 01:48:04;;;;;;;0.80;0.80;;;;;;;-0.97;82.07;99656.09;4782655;29;20051;-83
2022/10/26 01:50:31;;;;;;;0.90;0.90;;;;;;;-0.98;82.11;99651.81;4768222;30;20059;-83
2022/10/26 01:52:58;;;;;;;0.73;0.73;;;;;;;-1.01;82.39;99641.53;4782710;30;20044;-82
2022/10/26 01:55:39;;;;;;;0.73;0.73;;;;;;;-0.96;82.43;99648.97;4768063;30;20083;-81
2022/10/26 01:58:23;;;;;;;0.73;0.73;;;;;;;-0.95;82.66;99655.97;4782346;30;20060;-82
2022/10/26 02:01:27;;;;;;;0.65;0.65;;;;;;;-0.89;82.54;99650.03;4769458;30;20067;-81
2022/10/26 02:03:59;;;;;;;0.70;0.70;;;;;;;-0.85;82.30;99639.97;4770170;30;20086;-82
2022/10/26 02:06:32;;;;;;;0.70;0.70;;;;;;;-0.89;82.43;99645.59;4770486;30;20090;-81
2022/10/26 02:09:23;;;;;;;0.77;0.77;;;;;;;-0.94;82.40;99645.22;4769953;30;20066;-83
2022/10/26 02:11:52;;;;;;;0.70;0.70;;;;;;;-0.99;82.33;99655.41;4753248;30;20083;-81
2022/10/26 02:14:34;;;;;;;0.70;0.70;;;;;;;-1.02;82.72;99646.97;4769021;30;20052;-83
2022/10/26 02:17:28;;;;;;;0.80;0.80;;;;;;;-1.03;82.75;99642.66;4752910;30;20055;-82
2022/10/26 02:20:06;;;;;;;0.70;0.70;;;;;;;-1.07;82.92;99644.75;4764039;30;20071;-82
2022/10/26 02:22:48;;;;;;;0.70;0.70;;;;;;;-1.13;83.09;99653.34;4768813;30;20131;-81
2022/10/26 02:25:27;;;;;;;0.70;0.70;;;;;;;-1.26;83.30;99656.38;4753141;30;20063;-82
2022/10/26 02:27:58;;;;;;;0.80;0.80;;;;;;;-1.41;83.73;99645.50;4782261;30;20056;-80
2022/10/26 02:30:25;;;;;;;0.82;0.82;;;;;;;-1.47;84.02;99647.91;4752874;30;20063;-81
2022/10/26 02:32:54;;;;;;;0.90;0.90;;;;;;;-1.53;84.36;99650.16;4785544;30;20109;-83
2022/10/26 02:35:26;;;;;;;0.70;0.70;;;;;;;-1.60;84.81;99645.63;4753415;30;20200;-83
2022/10/26 02:37:55;;;;;;;0.85;0.85;;;;;;;-1.65;85.11;99658.47;4753141;30;20062;-82
2022/10/26 02:40:25;;;;;;;0.80;0.80;;;;;;;-1.70;85.16;99666.03;4766890;30;20062;-82
2022/10/26 02:42:55;;;;;;;0.70;0.70;;;;;;;-1.78;85.60;99664.13;4768358;30;20051;-82
2022/10/26 02:45:30;;;;;;;0.60;0.60;;;;;;;-1.80;86.02;99652.88;4781793;30;20462;-83
2022/10/26 02:47:57;;;;;;;0.75;0.75;;;;;;;-1.81;85.96;99667.09;4782284;30;20432;-83
2022/10/26 02:50:34;;;;;;;0.77;0.77;;;;;;;-1.85;86.30;99663.94;4781961;30;20135;-82
2022/10/26 02:53:34;;;;;;;0.90;0.90;;;;;;;-1.93;86.51;99661.16;4767929;30;20101;-82
2022/10/26 02:56:15;;;;;;;0.80;0.80;;;;;;;-1.94;86.96;99667.44;4751801;30;20521;-82
2022/10/26 02:58:45;;;;;;;0.70;0.70;;;;;;;-1.96;87.11;99664.09;4768823;30;20117;-82
2022/10/26 03:01:13;;;;;;;0.77;0.77;;;;;;;-1.99;86.94;99656.47;4766125;30;20463;-81
2022/10/26 03:03:40;;;;;;;0.90;0.90;;;;;;;-2.01;86.96;99653.97;4767982;30;20051;-81
2022/10/26 03:06:09;;;;;;;0.70;0.70;;;;;;;-2.01;87.17;99669.00;4768095;30;20058;-82
2022/10/26 03:08:36;;;;;;;0.70;0.70;;;;;;;-2.00;87.48;99653.00;4751975;30;20052;-82
2022/10/26 03:11:03;;;;;;;0.80;0.80;;;;;;;-2.01;87.14;99653.97;4767563;30;20059;-83
2022/10/26 03:13:30;;;;;;;0.70;0.70;;;;;;;-1.99;87.19;99649.38;4781445;30;20062;-83
2022/10/26 03:15:57;;;;;;;0.70;0.70;;;;;;;-1.93;87.59;99649.75;4767672;30;20063;-83
2022/10/26 03:18:24;;;;;;;0.70;0.70;;;;;;;-1.90;87.30;99647.66;4767904;30;20055;-82
2022/10/26 03:20:51;;;;;;;0.80;0.80;;;;;;;-1.81;87.33;99646.75;4767710;30;20068;-83
2022/10/26 03:23:18;;;;;;;0.60;0.60;;;;;;;-1.79;87.10;99644.78;4751773;30;20062;-87
2022/10/26 03:25:45;;;;;;;0.70;0.70;;;;;;;-1.78;87.04;99635.03;4762408;30;20070;-85
2022/10/26 03:28:13;;;;;;;0.82;0.82;;;;;;;-1.69;87.13;99644.72;4755931;30;20122;-85
2022/10/26 03:30:44;;;;;;;0.60;0.60;;;;;;;-1.72;86.93;99634.44;4759504;30;20052;-85
2022/10/26 03:33:11;;;;;;;0.60;0.60;;;;;;;-1.62;86.58;99643.16;4768876;30;20047;-89
2022/10/26 03:35:38;;;;;;;0.70;0.70;;;;;;;-1.58;86.68;99648.97;4755801;30;20519;-88
2022/10/26 03:38:05;;;;;;;0.70;0.70;;;;;;;-1.57;86.65;99642.69;4757652;30;20404;-83
2022/10/26 03:40:34;;;;;;;0.85;0.85;;;;;;;-1.59;86.47;99644.66;4778020;30;20427;-85
2022/10/26 03:43:04;;;;;;;0.65;0.65;;;;;;;-1.62;86.32;99640.50;4777689;30;20059;-85
2022/10/26 03:45:31;;;;;;;0.90;0.90;;;;;;;-1.65;86.25;99637.31;4773014;30;20492;-84
2022/10/26 03:47:58;;;;;;;0.60;0.60;;;;;;;-1.64;86.38;99645.13;4762529;30;20146;-85
2022/10/26 03:50:25;;;;;;;0.65;0.65;;;;;;;-1.66;86.32;99638.31;4779961;30;20508;-83
2022/10/26 03:52:52;;;;;;;0.80;0.80;;;;;;;-1.68;86.31;99640.25;4759190;30;20059;-82
2022/10/26 03:55:18;;;;;;;0.60;0.60;;;;;;;-1.72;86.36;99634.44;4755443;30;20409;-84
2022/10/26 03:57:46;;;;;;;0.60;0.60;;;;;;;-1.79;86.30;99626.28;4757917;30;20079;-84
2022/10/26 04:00:15;;;;;;;0.75;0.75;;;;;;;-1.80;86.55;99624.63;4763058;30;20048;-81
2022/10/26 04:02:45;;;;;;;0.70;0.70;;;;;;;-1.80;86.64;99637.00;4749365;30;20059;-83
2022/10/26 04:05:15;;;;;;;0.70;0.70;;;;;;;-1.82;86.93;99629.22;4742218;30;20524;-84
2022/10/26 04:07:54;;;;;;;0.90;0.90;;;;;;;-1.75;86.66;99629.44;4757302;30;20372;-82
2022/10/26 04:10:23;;;;;;;0.80;0.80;;;;;;;-1.75;86.71;99640.88;4746067;30;20134;-85
2022/10/26 04:12:50;;;;;;;0.50;0.50;;;;;;;-1.71;86.70;99635.28;4746193;30;20072;-84
2022/10/26 04:15:18;;;;;;;0.60;0.60;;;;;;;-1.58;86.27;99647.16;4734113;30;20052;-85
2022/10/26 04:17:45;;;;;;;0.57;0.57;;;;;;;-1.47;85.95;99638.13;4751726;30;20063;-84
2022/10/26 04:20:13;;;;;;;0.60;0.60;;;;;;;-1.36;85.66;99645.03;4736878;30;20063;-84
2022/10/26 04:22:40;;;;;;;0.70;0.70;;;;;;;-1.25;85.39;99650.09;4758962;30;20062;-84
2022/10/26 04:25:07;;;;;;;0.90;0.90;;;;;;;-1.15;85.12;99647.34;4753312;30;20048;-84
2022/10/26 04:27:35;;;;;;;0.70;0.70;;;;;;;-1.08;84.55;99650.25;4762388;30;20062;-85
2022/10/26 04:30:04;;;;;;;0.70;0.70;;;;;;;-1.02;84.14;99650.44;4772116;30;20146;-87
2022/10/26 04:32:31;;;;;;;0.70;0.70;;;;;;;-0.93;83.89;99661.94;4740093;30;20059;-86
2022/10/26 04:34:58;;;;;;;0.90;0.90;;;;;;;-0.86;83.58;99663.00;4752418;30;20586;-84
2022/10/26 04:37:25;;;;;;;1.00;1.00;;;;;;;-0.80;83.29;99669.50;4430640;30;10000647;-86
2022/10/26 04:39:52;;;;;;;0.90;0.90;;;;;;;-0.74;83.00;99659.06;4761225;30;20059;-89
2022/10/26 04:42:19;;;;;;;0.77;0.77;;;;;;;-0.67;82.51;99662.78;4750284;30;20055;-84
2022/10/26 04:44:49;;;;;;;0.90;0.90;;;;;;;-0.62;82.23;99669.44;4757938;30;20060;-84
2022/10/26 04:47:19;;;;;;;0.90;0.90;;;;;;;-0.55;82.03;99678.44;4733946;30;20088;-85
2022/10/26 04:49:47;;;;;;;0.60;0.60;;;;;;;-0.53;82.21;99676.44;4734643;30;20056;-88
2022/10/26 04:52:14;;;;;;;0.70;0.70;;;;;;;-0.66;81.69;99669.75;4734636;30;20102;-85
2022/10/26 04:54:41;;;;;;;0.70;0.70;;;;;;;-0.53;81.48;99677.28;4750286;30;20071;-81
2022/10/26 04:57:09;;;;;;;0.90;0.90;;;;;;;-0.58;81.09;99676.94;4749060;30;20052;-89
2022/10/26 04:59:36;;;;;;;0.80;0.80;;;;;;;-0.59;81.01;99675.25;4751578;30;20138;-85
2022/10/26 05:02:03;;;;;;;0.75;0.75;;;;;;;-0.62;80.88;99678.22;4768457;30;20055;-83
2022/10/26 05:04:30;;;;;;;0.80;0.80;;;;;;;-0.65;80.65;99675.88;4770134;30;20063;-88
2022/10/26 05:06:58;;;;;;;0.90;0.90;;;;;;;-0.61;80.60;99673.75;4735786;30;20392;-83
2022/10/26 05:09:26;;;;;;;0.75;0.75;;;;;;;-0.57;80.41;99678.56;4751384;30;20055;-85
2022/10/26 05:11:52;;;;;;;0.90;0.90;;;;;;;-0.47;80.35;99679.31;4753935;30;20471;-85
2022/10/26 05:14:20;;;;;;;0.70;0.70;;;;;;;-0.42;80.32;99680.66;4740539;30;20060;-85
2022/10/26 05:16:56;;;;;;;0.90;0.90;;;;;;;-0.40;80.34;99676.88;4754620;30;20051;-86
2022/10/26 05:19:43;;;;;;;0.98;0.98;;;;;;;-0.41;80.12;99679.66;4718447;30;20137;-85
2022/10/26 05:22:10;;;;;;;0.88;0.88;;;;;;;-0.37;80.16;99673.06;4754483;30;20058;-84
2022/10/26 05:24:37;;;;;;;0.73;0.73;;;;;;;-0.33;79.74;99674.41;4770152;30;20052;-87
2022/10/26 05:27:04;;;;;;;1.00;1.00;;;;;;;-0.27;79.67;99668.47;4739809;30;20431;-84
2022/10/26 05:29:31;;;;;;;0.90;0.90;;;;;;;-0.21;79.38;99673.13;4770396;30;20067;-84
2022/10/26 05:32:15;;;;;;;0.82;0.82;;;;;;;-0.13;79.06;99677.66;4754449;30;20059;-85
2022/10/26 05:34:47;;;;;;;1.00;1.00;;;;;;;-0.20;78.82;99650.09;4768910;30;20074;-85
2022/10/26 05:37:14;;;;;;;0.80;0.80;;;;;;;-0.10;78.65;99672.88;4738639;30;20056;-86
2022/10/26 05:39:42;;;;;;;1.02;1.02;;;;;;;-0.08;78.82;99656.78;4769560;30;20407;-85
2022/10/26 05:42:09;;;;;;;0.80;0.80;;;;;;;-0.04;78.30;99664.25;4770220;30;20062;-85
2022/10/26 05:44:36;;;;;;;0.80;0.80;;;;;;;-0.04;78.02;99680.19;4771630;30;20051;-86
2022/10/26 05:47:03;;;;;;;0.85;0.85;;;;;;;-0.02;77.91;99672.06;4753304;30;20081;-86
2022/10/26 05:49:30;;;;;;;0.80;0.80;;;;;;;-0.01;77.95;99671.06;4768940;30;20060;-84
2022/10/26 05:51:57;;;;;;;0.68;0.68;;;;;;;0.01;77.64;99678.88;4753196;30;20099;-86
2022/10/26 05:54:24;;;;;;;0.88;0.88;;;;;;;0.02;77.65;99681.34;4761633;30;20974;-85
2022/10/26 05:56:51;;;;;;;0.80;0.80;;;;;;;0.09;77.68;99673.59;4754833;30;20207;-86
2022/10/26 05:59:22;;;;;;;0.70;0.70;;;;;;;0.14;77.41;99676.59;4755654;30;20053;-83
2022/10/26 06:02:09;;;;;;;1.00;1.00;;;;;;;0.13;77.03;99675.78;4751134;30;20061;-86
2022/10/26 06:04:41;;;;;;;0.90;0.90;;;;;;;0.10;76.85;99672.59;4689963;30;20062;-83
2022/10/26 06:07:14;;;;;;;0.93;0.93;;;;;;;0.14;77.10;99676.59;4693062;30;20186;-84
2022/10/26 06:09:42;;;;;;;0.80;0.80;;;;;;;0.21;76.72;99678.44;4689091;30;20081;-83
2022/10/26 06:12:13;;;;;;;0.90;0.90;;;;;;;0.16;76.58;99677.28;4679677;30;20066;-82
2022/10/26 06:14:45;;;;;;;0.88;0.88;;;;;;;0.18;76.57;99678.78;4694286;30;20061;-85
2022/10/26 06:17:32;;;;;;;0.80;0.80;;;;;;;0.24;76.65;99685.25;4693442;30;20057;-86
2022/10/26 06:20:23;;;;;;;0.90;0.90;;;;;;;0.28;76.19;99689.25;4709943;30;20084;-84
2022/10/26 06:23:08;;;;;;;0.98;0.98;;;;;;;0.34;76.12;99683.28;4712706;30;20556;-84
2022/10/26 06:25:56;;;;;;;0.80;0.80;;;;;;;0.47;75.81;99682.81;4694080;30;20061;-83
2022/10/26 06:28:45;;;;;;;1.00;1.00;;;;;;;0.61;75.12;99684.84;4708931;30;20054;-85
2022/10/26 06:31:16;;;;;;;1.10;1.10;;;;;;;0.53;75.08;99679.53;4705441;30;20056;-85
2022/10/26 06:33:43;;;;;;;0.90;0.90;;;;;;;0.56;74.89;99679.19;4712314;30;20138;-85
2022/10/26 06:36:16;;;;;;;1.08;1.08;;;;;;;0.66;74.88;99692.34;4690583;30;20072;-84
2022/10/26 06:38:47;;;;;;;0.80;0.80;;;;;;;0.73;74.36;99688.00;4695316;30;20084;-84
2022/10/26 06:41:17;;;;;;;0.80;0.80;;;;;;;0.86;74.45;99688.38;4715130;30;20060;-82
2022/10/26 06:43:45;;;;;;;0.77;0.77;;;;;;;1.01;73.91;99685.03;4734417;30;20052;-84
2022/10/26 06:46:33;;;;;;;0.88;0.88;;;;;;;1.04;73.35;99687.38;4754277;30;20056;-84
2022/10/26 06:49:21;;;;;;;0.90;0.90;;;;;;;1.00;73.60;99694.03;4760348;30;20056;-83
2022/10/26 06:52:30;;;;;;;0.90;0.90;;;;;;;0.85;73.63;99692.00;4760263;30;20094;-84
2022/10/26 06:55:04;;;;;;;0.85;0.85;;;;;;;0.71;74.16;99690.03;4734500;30;20053;-85
2022/10/26 06:57:34;;;;;;;1.10;1.10;;;;;;;0.85;73.76;99692.00;4739869;30;20252;-86
2022/10/26 07:00:09;;;;;;;0.90;0.90;;;;;;;1.20;73.39;99695.34;4759684;30;20467;-85
2022/10/26 07:02:37;;;;;;;0.90;0.90;;;;;;;1.52;72.49;99696.31;4763983;30;20066;-84
2022/10/26 07:05:05;;;;;;;0.80;0.80;;;;;;;1.73;71.74;99699.25;4758665;30;20059;-86
2022/10/26 07:07:32;;;;;;;1.00;1.00;;;;;;;1.95;70.71;99691.53;4767466;30;20564;-86
2022/10/26 07:09:59;;;;;;;0.90;0.90;;;;;;;2.14;70.05;99687.63;4766002;30;20094;-85
2022/10/26 07:12:26;;;;;;;1.00;1.00;;;;;;;2.45;68.97;99682.28;4764344;30;20142;-84
2022/10/26 07:14:59;;;;;;;1.00;1.00;;;;;;;2.69;67.71;99677.84;4756294;30;20048;-85
2022/10/26 07:17:27;;;;;;;1.00;1.00;;;;;;;2.96;67.03;99679.13;4748776;30;20052;-85
2022/10/26 07:19:55;;;;;;;0.95;0.95;;;;;;;3.33;66.05;99680.97;4767482;30;20083;-85
2022/10/26 07:22:22;;;;;;;0.82;0.82;;;;;;;3.57;64.87;99679.94;4750719;30;20055;-85
2022/10/26 07:24:50;;;;;;;1.00;1.00;;;;;;;3.73;64.07;99676.25;4766404;30;20102;-85
2022/10/26 07:27:22;;;;;;;1.00;1.00;;;;;;;3.85;63.51;99673.97;4751186;30;20470;-86
2022/10/26 07:29:49;;;;;;;1.00;1.00;;;;;;;3.68;63.18;99675.97;4767146;30;20142;-84
2022/10/26 07:32:16;;;;;;;0.90;0.90;;;;;;;3.82;62.61;99679.63;4765570;30;20067;-84
2022/10/26 07:34:43;;;;;;;0.90;0.90;;;;;;;3.90;62.49;99671.56;4751403;30;20507;-84
2022/10/26 07:37:10;;;;;;;0.90;0.90;;;;;;;4.04;61.95;99676.03;4767213;30;20056;-83
2022/10/26 07:39:37;;;;;;;0.98;0.98;;;;;;;4.18;61.23;99673.53;4767459;30;20071;-83
2022/10/26 07:42:04;;;;;;;0.93;0.93;;;;;;;4.31;60.46;99661.19;4766933;30;20066;-84
2022/10/26 07:44:31;;;;;;;0.90;0.90;;;;;;;4.53;60.10;99671.88;4767381;30;20056;-85
2022/10/26 07:46:59;;;;;;;1.00;1.00;;;;;;;4.77;59.82;99674.22;4750973;30;20574;-84
2022/10/26 07:49:26;;;;;;;0.90;0.90;;;;;;;4.43;59.57;99668.69;4754489;30;20135;-85
2022/10/26 07:51:53;;;;;;;0.90;0.90;;;;;;;4.11;60.51;99687.66;4745008;30;20051;-85
2022/10/26 07:54:20;;;;;;;0.82;0.82;;;;;;;3.61;61.57;99669.69;4751014;30;20112;-85
2022/10/26 07:56:49;;;;;;;0.90;0.90;;;;;;;3.36;62.31;99677.94;4760380;30;20052;-83
2022/10/26 07:59:18;;;;;;;0.90;0.90;;;;;;;3.15;63.16;99678.63;4742207;30;20079;-85
2022/10/26 08:01:45;;;;;;;1.00;1.00;;;;;;;2.72;64.28;99672.97;4760416;30;20130;-85
2022/10/26 08:04:13;;;;;;;0.90;0.90;;;;;;;2.51;65.06;99686.13;4749331;30;20066;-89
2022/10/26 08:06:40;;;;;;;0.80;0.80;;;;;;;2.49;65.59;99672.13;4767486;30;20428;-86
2022/10/26 08:09:07;;;;;;;0.90;0.90;;;;;;;2.42;65.65;99690.66;4755919;30;20517;-86
2022/10/26 08:11:35;;;;;;;0.90;0.90;;;;;;;2.26;65.82;99682.75;4758138;30;20052;-85
2022/10/26 08:14:03;;;;;;;0.80;0.80;;;;;;;2.35;66.50;99692.34;4781259;30;20159;-86
2022/10/26 08:16:30;;;;;;;0.90;0.90;;;;;;;2.60;66.10;99688.53;4755752;30;20047;-86
2022/10/26 08:18:57;;;;;;;1.00;1.00;;;;;;;2.92;65.09;99681.31;4771043;30;20119;-85
2022/10/26 08:21:24;;;;;;;1.00;1.00;;;;;;;3.62;63.50;99674.00;4770547;30;20060;-85
2022/10/26 08:24:06;;;;;;;1.00;1.00;;;;;;;4.34;62.45;99670.66;4740607;30;20391;-86
2022/10/26 08:26:33;;;;;;;0.90;0.90;;;;;;;4.97;60.52;99670.91;4771035;30;20071;-86
2022/10/26 08:29:00;;;;;;;0.80;0.80;;;;;;;4.86;59.52;99669.59;4757216;30;20056;-85
2022/10/26 08:31:27;;;;;;;0.90;0.90;;;;;;;4.65;59.68;99675.72;4740881;30;20056;-86
2022/10/26 08:33:54;;;;;;;0.90;0.90;;;;;;;4.58;59.94;99669.47;4770513;30;20066;-85
2022/10/26 08:36:25;;;;;;;0.80;0.80;;;;;;;4.53;59.89;99679.91;4770718;30;20055;-86
2022/10/26 08:38:52;;;;;;;0.80;0.80;;;;;;;4.86;59.70;99674.94;4773541;30;20048;-86
2022/10/26 08:41:36;;;;;;;0.80;0.80;;;;;;;5.19;59.18;99680.56;4762784;30;20071;-86
2022/10/26 08:44:25;;;;;;;0.75;0.75;;;;;;;5.32;58.78;99679.03;4771061;30;20546;-86
2022/10/26 08:47:15;;;;;;;0.70;0.70;;;;;;;5.52;57.96;99685.38;4740508;30;20434;-84
2022/10/26 08:49:59;;;;;;;0.82;0.82;;;;;;;5.69;57.67;99679.69;4758745;30;20063;-86
2022/10/26 08:52:36;;;;;;;0.80;0.80;;;;;;;5.99;56.95;99681.13;4754198;30;20056;-83
2022/10/26 08:55:08;;;;;;;0.90;0.90;;;;;;;6.31;56.09;99681.50;4754874;30;20052;-84
2022/10/26 08:57:37;;;;;;;0.80;0.80;;;;;;;6.49;54.93;99687.13;4753653;30;20499;-86
2022/10/26 09:00:06;;;;;;;0.90;0.90;;;;;;;7.05;54.02;99680.66;4740052;30;20121;-87
2022/10/26 09:02:33;;;;;;;0.90;0.90;;;;;;;7.21;53.18;99679.41;4754596;30;20051;-86
2022/10/26 09:05:01;;;;;;;0.90;0.90;;;;;;;7.30;52.99;99678.19;4771579;30;20056;-87
2022/10/26 09:07:59;;;;;;;0.90;0.90;;;;;;;7.72;52.33;99676.09;4771137;30;20142;-85
2022/10/26 09:10:30;;;;;;;0.90;0.90;;;;;;;8.04;51.51;99678.91;4770756;30;20051;-85
2022/10/26 09:13:20;;;;;;;1.00;1.00;;;;;;;8.09;51.25;99679.09;4754807;30;20455;-86
2022/10/26 09:16:02;;;;;;;0.90;0.90;;;;;;;8.09;50.66;99681.78;4737713;30;20060;-87
2022/10/26 09:19:00;;;;;;;0.90;0.90;;;;;;;8.06;50.94;99682.19;4748883;30;20055;-85
2022/10/26 09:21:53;;;;;;;0.80;0.80;;;;;;;7.74;50.87;99681.22;4768711;30;20055;-85
2022/10/26 09:24:34;;;;;;;0.90;0.90;;;;;;;7.04;52.06;99680.84;4770751;30;20060;-87
2022/10/26 09:27:11;;;;;;;0.90;0.90;;;;;;;6.53;53.34;99676.81;4753911;30;20055;-85
2022/10/26 09:29:42;;;;;;;0.90;0.90;;;;;;;6.71;53.34;99676.28;4754160;30;20147;-87
2022/10/26 09:32:33;;;;;;;0.85;0.85;;;;;;;6.84;53.16;99680.84;4763213;30;20146;-85
2022/10/26 09:35:09;;;;;;;0.80;0.80;;;;;;;6.31;53.71;99684.19;4732359;30;20253;-84
2022/10/26 09:37:39;;;;;;;0.80;0.80;;;;;;;5.97;55.33;99685.84;4423094;30;10000331;-87
2022/10/26 09:40:12;;;;;;;0.80;0.80;;;;;;;5.97;55.75;99679.69;4736566;30;20594;-85
2022/10/26 09:42:44;;;;;;;0.80;0.80;;;;;;;5.86;55.54;99675.69;4735624;30;20424;-84
2022/10/26 09:45:15;;;;;;;0.80;0.80;;;;;;;5.69;56.03;99679.69;4742957;30;20059;-88
2022/10/26 09:48:20;;;;;;;0.90;0.90;;;;;;;5.72;56.28;99680.16;4763699;30;20062;-85
2022/10/26 09:50:48;;;;;;;0.90;0.90;;;;;;;5.76;56.31;99680.56;4762051;30;20114;-86
2022/10/26 09:53:16;;;;;;;0.90;0.90;;;;;;;6.19;55.58;99675.06;4763184;30;20486;-86
2022/10/26 09:55:49;;;;;;;0.90;0.90;;;;;;;6.56;54.47;99667.53;4737461;30;20048;-88
2022/10/26 09:58:31;;;;;;;0.90;0.90;;;;;;;6.76;54.37;99673.81;4741114;30;20052;-88
2022/10/26 10:00:58;;;;;;;0.90;0.90;;;;;;;6.87;53.67;99667.81;4759784;30;20052;-87
2022/10/26 10:03:28;;;;;;;0.80;0.80;;;;;;;6.67;53.99;99662.41;4754659;30;20064;-88
2022/10/26 10:06:17;;;;;;;0.80;0.80;;;;;;;6.72;54.09;99676.06;4763439;30;20066;-84
2022/10/26 10:09:10;;;;;;;0.80;0.80;;;;;;;6.69;54.58;99672.97;4740161;30;20052;-86
2022/10/26 10:11:53;;;;;;;0.80;0.80;;;;;;;6.69;54.86;99668.41;4757649;30;20052;-86
2022/10/26 10:14:23;;;;;;;0.80;0.80;;;;;;;6.61;54.85;99665.06;4724440;30;20196;-88
2022/10/26 10:16:59;;;;;;;0.80;0.80;;;;;;;6.54;55.33;99658.91;4747203;30;20052;-83
2022/10/26 10:19:27;;;;;;;0.80;0.80;;;;;;;6.47;55.58;99666.91;4747903;30;20071;-85
2022/10/26 10:21:57;;;;;;;0.80;0.80;;;;;;;6.48;55.46;99664.03;4749036;30;20448;-84
2022/10/26 10:24:30;;;;;;;0.90;0.90;;;;;;;6.34;55.61;99654.28;4755841;30;20056;-84
2022/10/26 10:27:16;;;;;;;0.80;0.80;;;;;;;6.28;55.74;99660.47;4741605;30;20094;-84
2022/10/26 10:29:48;;;;;;;0.80;0.80;;;;;;;6.18;56.10;99662.66;4764427;30;20062;-86
2022/10/26 10:32:26;;;;;;;0.80;0.80;;;;;;;6.24;55.84;99659.19;4748444;30;20058;-84
2022/10/26 10:34:58;;;;;;;0.80;0.80;;;;;;;6.35;55.80;99650.56;4764969;30;20141;-84
2022/10/26 10:37:28;;;;;;;0.80;0.80;;;;;;;6.17;55.18;99658.34;4763939;30;20135;-83
2022/10/26 10:40:01;;;;;;;0.80;0.80;;;;;;;6.13;54.44;99657.06;4759656;30;20417;-84
2022/10/26 10:42:33;;;;;;;0.90;0.90;;;;;;;6.08;54.52;99657.69;4745201;30;20504;-84
2022/10/26 10:45:05;;;;;;;0.90;0.90;;;;;;;6.04;55.12;99656.44;4768187;30;20150;-84
2022/10/26 10:47:34;;;;;;;0.80;0.80;;;;;;;5.93;55.32;99648.94;4767237;30;20556;-85
2022/10/26 10:50:03;;;;;;;0.80;0.80;;;;;;;5.94;55.50;99661.31;4767822;30;20539;-86
2022/10/26 10:52:32;;;;;;;0.75;0.75;;;;;;;5.88;55.58;99651.38;4765018;30;20206;-85
2022/10/26 10:55:14;;;;;;;0.80;0.80;;;;;;;5.92;55.08;99655.31;4767962;30;20079;-85
2022/10/26 10:57:41;;;;;;;0.80;0.80;;;;;;;6.07;54.93;99662.22;4749594;30;20552;-84
2022/10/26 11:00:09;;;;;;;0.70;0.70;;;;;;;6.09;54.46;99653.97;4768735;30;20055;-85
2022/10/26 11:03:03;;;;;;;0.80;0.80;;;;;;;6.08;54.13;99646.97;4751238;30;20064;-85
2022/10/26 11:05:48;;;;;;;0.80;0.80;;;;;;;6.17;54.20;99664.53;4760312;30;20141;-84
2022/10/26 11:08:37;;;;;;;0.80;0.80;;;;;;;6.13;53.87;99657.06;4751109;30;20156;-86
2022/10/26 11:11:25;;;;;;;0.75;0.75;;;;;;;6.03;54.38;99669.00;4761282;30;20581;-86
2022/10/26 11:14:07;;;;;;;0.80;0.80;;;;;;;5.99;54.29;99667.75;4735925;30;20063;-86
2022/10/26 11:16:43;;;;;;;0.80;0.80;;;;;;;5.98;54.35;99668.78;4750812;30;20064;-86
2022/10/26 11:19:23;;;;;;;0.70;0.70;;;;;;;5.93;54.66;99668.50;4737567;30;20090;-86
2022/10/26 11:21:53;;;;;;;0.77;0.77;;;;;;;5.88;54.61;99662.91;4733937;30;20063;-87
2022/10/26 11:24:44;;;;;;;0.80;0.80;;;;;;;5.79;54.50;99659.56;4761370;30;20052;-86
2022/10/26 11:27:17;;;;;;;0.70;0.70;;;;;;;5.62;54.74;99668.94;4735514;30;20060;-87
2022/10/26 11:30:16;;;;;;;0.80;0.80;;;;;;;5.67;54.76;99660.31;4736868;30;20165;-86
2022/10/26 11:32:47;;;;;;;0.80;0.80;;;;;;;5.55;55.09;99662.72;4736564;30;20510;-84
2022/10/26 11:35:25;;;;;;;0.80;0.80;;;;;;;5.44;55.10;99650.69;4757098;30;20064;-87
2022/10/26 11:38:23;;;;;;;0.70;0.70;;;;;;;5.52;54.98;99671.13;4735091;30;20079;-86
2022/10/26 11:41:55;;;;;;;0.70;0.70;;;;;;;5.47;55.07;99660.19;4751405;30;20052;-86
2022/10/26 11:44:28;;;;;;;0.80;0.80;;;;;;;5.32;55.45;99671.00;4751774;30;20059;-87
2022/10/26 11:47:33;;;;;;;0.75;0.75;;;;;;;5.34;55.64;99656.41;4762739;30;20472;-88
2022/10/26 11:50:12;;;;;;;0.80;0.80;;;;;;;5.27;56.02;99660.88;4747978;30;20083;-87
2022/10/26 11:53:09;;;;;;;0.80;0.80;;;;;;;5.15;56.07;99654.38;4768901;30;20067;-88
2022/10/26 11:55:38;;;;;;;0.80;0.80;;;;;;;5.08;56.05;99648.97;4734990;30;20062;-87
2022/10/26 11:58:10;;;;;;;0.70;0.70;;;;;;;5.09;56.00;99656.00;4771816;30;20060;-88
2022/10/26 12:00:48;;;;;;;0.80;0.80;;;;;;;4.97;56.12;99649.50;4743669;30;20512;-86
2022/10/26 12:03:22;;;;;;;0.80;0.80;;;;;;;4.90;56.80;99640.59;4757294;30;20060;-87
2022/10/26 12:05:50;;;;;;;0.80;0.80;;;;;;;4.88;56.82;99642.63;4753090;30;20154;-87